sensor_id;sensor_type;location;lat;lon;timestamp;P1;durP1;ratioP1;P2;durP2;ratioP2
8982;SDS011;20979;59.850;10.660;2023-05-07T00:01:54;3.27;;;1.60;;
8982;SDS011;20979;59.850;10.660;2023-05-07T00:04:22;1.43;;;1.33;;
8982;SDS011;20979;59.850;10.660;2023-05-07T00:06:49;4.23;;;1.67;;
8982;SDS011;20979;59.850;10.660;2023-05-07T00:09:17;1.97;;;1.70;;
8982;SDS011;20979;59.850;10.660;2023-05-07T00:11:44;1.73;;;1.43;;
8982;SDS011;20979;59.850;10.660;2023-05-07T00:14:12;2.60;;;1.60;;
8982;SDS011;20979;59.850;10.660;2023-05-07T00:16:39;1.87;;;1.63;;
8982;SDS011;20979;59.850;10.660;2023-05-07T00:19:08;2.23;;;1.63;;
8982;SDS011;20979;59.850;10.660;2023-05-07T00:21:35;2.60;;;1.80;;
8982;SDS011;20979;59.850;10.660;2023-05-07T00:24:03;2.17;;;1.70;;
8982;SDS011;20979;59.850;10.660;2023-05-07T00:26:30;3.13;;;1.63;;
8982;SDS011;20979;59.850;10.660;2023-05-07T00:28:58;3.73;;;1.83;;
8982;SDS011;20979;59.850;10.660;2023-05-07T00:31:25;2.33;;;1.77;;
8982;SDS011;20979;59.850;10.660;2023-05-07T00:33:53;2.33;;;1.97;;
8982;SDS011;20979;59.850;10.660;2023-05-07T00:36:21;5.23;;;2.10;;
8982;SDS011;20979;59.850;10.660;2023-05-07T00:38:49;2.57;;;2.00;;
8982;SDS011;20979;59.850;10.660;2023-05-07T00:41:16;3.70;;;1.93;;
8982;SDS011;20979;59.850;10.660;2023-05-07T00:43:44;3.23;;;2.03;;
8982;SDS011;20979;59.850;10.660;2023-05-07T00:46:11;8.13;;;1.90;;
8982;SDS011;20979;59.850;10.660;2023-05-07T00:48:39;2.40;;;2.00;;
8982;SDS011;20979;59.850;10.660;2023-05-07T00:51:07;3.50;;;2.20;;
8982;SDS011;20979;59.850;10.660;2023-05-07T00:53:36;3.03;;;2.00;;
8982;SDS011;20979;59.850;10.660;2023-05-07T00:56:03;2.20;;;1.60;;
8982;SDS011;20979;59.850;10.660;2023-05-07T00:58:31;2.63;;;1.90;;
8982;SDS011;20979;59.850;10.660;2023-05-07T01:00:59;3.93;;;1.90;;
8982;SDS011;20979;59.850;10.660;2023-05-07T01:03:26;3.90;;;1.90;;
8982;SDS011;20979;59.850;10.660;2023-05-07T01:05:54;2.17;;;1.97;;
8982;SDS011;20979;59.850;10.660;2023-05-07T01:08:22;3.27;;;1.83;;
8982;SDS011;20979;59.850;10.660;2023-05-07T01:10:53;2.53;;;1.83;;
8982;SDS011;20979;59.850;10.660;2023-05-07T01:13:21;2.80;;;2.00;;
8982;SDS011;20979;59.850;10.660;2023-05-07T01:15:49;2.20;;;1.93;;
8982;SDS011;20979;59.850;10.660;2023-05-07T01:18:17;2.00;;;1.80;;
8982;SDS011;20979;59.850;10.660;2023-05-07T01:20:44;2.03;;;1.80;;
8982;SDS011;20979;59.850;10.660;2023-05-07T01:23:13;2.97;;;2.13;;
8982;SDS011;20979;59.850;10.660;2023-05-07T01:25:41;4.17;;;1.90;;
8982;SDS011;20979;59.850;10.660;2023-05-07T01:28:09;2.93;;;2.10;;
8982;SDS011;20979;59.850;10.660;2023-05-07T01:30:36;2.03;;;1.90;;
8982;SDS011;20979;59.850;10.660;2023-05-07T01:33:08;2.00;;;1.80;;
8982;SDS011;20979;59.850;10.660;2023-05-07T01:35:37;2.40;;;2.00;;
8982;SDS011;20979;59.850;10.660;2023-05-07T01:38:05;3.10;;;1.90;;
8982;SDS011;20979;59.850;10.660;2023-05-07T01:40:35;2.97;;;1.90;;
8982;SDS011;20979;59.850;10.660;2023-05-07T01:43:02;4.60;;;1.90;;
8982;SDS011;20979;59.850;10.660;2023-05-07T01:45:30;2.20;;;2.00;;
8982;SDS011;20979;59.850;10.660;2023-05-07T01:47:58;1.83;;;1.73;;
8982;SDS011;20979;59.850;10.660;2023-05-07T01:50:25;2.37;;;2.00;;
8982;SDS011;20979;59.850;10.660;2023-05-07T01:52:53;4.07;;;1.90;;
8982;SDS011;20979;59.850;10.660;2023-05-07T01:55:20;4.20;;;2.03;;
8982;SDS011;20979;59.850;10.660;2023-05-07T01:57:50;2.43;;;1.90;;
8982;SDS011;20979;59.850;10.660;2023-05-07T02:00:17;3.13;;;1.83;;
8982;SDS011;20979;59.850;10.660;2023-05-07T02:02:45;4.00;;;1.90;;
8982;SDS011;20979;59.850;10.660;2023-05-07T02:05:12;2.47;;;1.90;;
8982;SDS011;20979;59.850;10.660;2023-05-07T02:07:40;4.20;;;2.00;;
8982;SDS011;20979;59.850;10.660;2023-05-07T02:10:07;3.40;;;1.80;;
8982;SDS011;20979;59.850;10.660;2023-05-07T02:12:35;2.03;;;1.80;;
8982;SDS011;20979;59.850;10.660;2023-05-07T02:15:04;2.43;;;1.80;;
8982;SDS011;20979;59.850;10.660;2023-05-07T02:17:31;2.20;;;1.90;;
8982;SDS011;20979;59.850;10.660;2023-05-07T02:19:59;2.80;;;1.90;;
8982;SDS011;20979;59.850;10.660;2023-05-07T02:22:26;2.33;;;1.80;;
8982;SDS011;20979;59.850;10.660;2023-05-07T02:24:53;3.00;;;2.17;;
8982;SDS011;20979;59.850;10.660;2023-05-07T02:27:21;2.00;;;1.80;;
8982;SDS011;20979;59.850;10.660;2023-05-07T02:29:48;2.17;;;1.93;;
8982;SDS011;20979;59.850;10.660;2023-05-07T02:32:17;1.97;;;1.77;;
8982;SDS011;20979;59.850;10.660;2023-05-07T02:34:44;2.93;;;2.00;;
8982;SDS011;20979;59.850;10.660;2023-05-07T02:37:12;1.80;;;1.70;;
8982;SDS011;20979;59.850;10.660;2023-05-07T02:39:39;2.40;;;2.00;;
8982;SDS011;20979;59.850;10.660;2023-05-07T02:42:07;2.53;;;1.87;;
8982;SDS011;20979;59.850;10.660;2023-05-07T02:44:34;2.00;;;1.90;;
8982;SDS011;20979;59.850;10.660;2023-05-07T02:47:01;1.87;;;1.73;;
8982;SDS011;20979;59.850;10.660;2023-05-07T02:49:30;2.83;;;2.00;;
8982;SDS011;20979;59.850;10.660;2023-05-07T02:51:58;2.93;;;1.97;;
8982;SDS011;20979;59.850;10.660;2023-05-07T02:54:25;2.90;;;1.90;;
8982;SDS011;20979;59.850;10.660;2023-05-07T02:56:54;2.10;;;1.80;;
8982;SDS011;20979;59.850;10.660;2023-05-07T02:59:21;2.77;;;2.00;;
8982;SDS011;20979;59.850;10.660;2023-05-07T03:01:48;2.67;;;1.87;;
8982;SDS011;20979;59.850;10.660;2023-05-07T03:04:16;2.30;;;2.00;;
8982;SDS011;20979;59.850;10.660;2023-05-07T03:06:45;2.10;;;1.90;;
8982;SDS011;20979;59.850;10.660;2023-05-07T03:09:12;3.90;;;2.17;;
8982;SDS011;20979;59.850;10.660;2023-05-07T03:11:40;3.90;;;2.27;;
8982;SDS011;20979;59.850;10.660;2023-05-07T03:14:07;3.23;;;2.20;;
8982;SDS011;20979;59.850;10.660;2023-05-07T03:16:35;3.30;;;1.90;;
8982;SDS011;20979;59.850;10.660;2023-05-07T03:19:02;3.23;;;2.10;;
8982;SDS011;20979;59.850;10.660;2023-05-07T03:21:30;2.90;;;2.20;;
8982;SDS011;20979;59.850;10.660;2023-05-07T03:24:00;2.77;;;2.20;;
8982;SDS011;20979;59.850;10.660;2023-05-07T03:26:27;2.80;;;1.83;;
8982;SDS011;20979;59.850;10.660;2023-05-07T03:28:55;2.37;;;2.17;;
8982;SDS011;20979;59.850;10.660;2023-05-07T03:31:22;4.47;;;2.00;;
8982;SDS011;20979;59.850;10.660;2023-05-07T03:33:50;2.27;;;2.00;;
8982;SDS011;20979;59.850;10.660;2023-05-07T03:36:18;2.30;;;2.10;;
8982;SDS011;20979;59.850;10.660;2023-05-07T03:38:45;2.13;;;2.00;;
8982;SDS011;20979;59.850;10.660;2023-05-07T03:41:14;2.20;;;1.70;;
8982;SDS011;20979;59.850;10.660;2023-05-07T03:43:41;2.30;;;2.10;;
8982;SDS011;20979;59.850;10.660;2023-05-07T03:46:09;2.27;;;1.70;;
8982;SDS011;20979;59.850;10.660;2023-05-07T03:48:36;3.40;;;1.80;;
8982;SDS011;20979;59.850;10.660;2023-05-07T03:51:04;2.80;;;1.93;;
8982;SDS011;20979;59.850;10.660;2023-05-07T03:53:31;2.07;;;1.97;;
8982;SDS011;20979;59.850;10.660;2023-05-07T03:55:58;2.03;;;1.80;;
8982;SDS011;20979;59.850;10.660;2023-05-07T03:58:27;2.37;;;2.00;;
8982;SDS011;20979;59.850;10.660;2023-05-07T04:00:54;1.87;;;1.73;;
8982;SDS011;20979;59.850;10.660;2023-05-07T04:03:22;2.33;;;1.80;;
8982;SDS011;20979;59.850;10.660;2023-05-07T04:05:49;3.27;;;2.17;;
8982;SDS011;20979;59.850;10.660;2023-05-07T04:08:17;3.40;;;1.97;;
8982;SDS011;20979;59.850;10.660;2023-05-07T04:10:44;1.87;;;1.67;;
8982;SDS011;20979;59.850;10.660;2023-05-07T04:13:11;2.37;;;2.17;;
8982;SDS011;20979;59.850;10.660;2023-05-07T04:15:40;2.27;;;2.07;;
8982;SDS011;20979;59.850;10.660;2023-05-07T04:18:07;1.87;;;1.60;;
8982;SDS011;20979;59.850;10.660;2023-05-07T04:20:35;2.83;;;1.90;;
8982;SDS011;20979;59.850;10.660;2023-05-07T04:23:02;2.70;;;1.80;;
8982;SDS011;20979;59.850;10.660;2023-05-07T04:25:30;3.50;;;1.70;;
8982;SDS011;20979;59.850;10.660;2023-05-07T04:27:57;1.87;;;1.60;;
8982;SDS011;20979;59.850;10.660;2023-05-07T04:30:25;4.40;;;1.70;;
8982;SDS011;20979;59.850;10.660;2023-05-07T04:32:53;3.03;;;1.80;;
8982;SDS011;20979;59.850;10.660;2023-05-07T04:35:21;3.93;;;1.80;;
8982;SDS011;20979;59.850;10.660;2023-05-07T04:37:48;1.37;;;1.30;;
8982;SDS011;20979;59.850;10.660;2023-05-07T04:40:16;2.20;;;1.77;;
8982;SDS011;20979;59.850;10.660;2023-05-07T04:42:43;4.07;;;2.00;;
8982;SDS011;20979;59.850;10.660;2023-05-07T04:45:11;4.63;;;1.80;;
8982;SDS011;20979;59.850;10.660;2023-05-07T04:47:38;4.40;;;1.90;;
8982;SDS011;20979;59.850;10.660;2023-05-07T04:50:07;2.00;;;1.80;;
8982;SDS011;20979;59.850;10.660;2023-05-07T04:52:35;4.10;;;1.80;;
8982;SDS011;20979;59.850;10.660;2023-05-07T04:55:03;2.43;;;1.60;;
8982;SDS011;20979;59.850;10.660;2023-05-07T04:57:31;2.20;;;2.00;;
8982;SDS011;20979;59.850;10.660;2023-05-07T04:59:58;3.20;;;2.10;;
8982;SDS011;20979;59.850;10.660;2023-05-07T05:02:25;1.90;;;1.80;;
8982;SDS011;20979;59.850;10.660;2023-05-07T05:04:53;1.87;;;1.77;;
8982;SDS011;20979;59.850;10.660;2023-05-07T05:07:22;2.57;;;1.97;;
8982;SDS011;20979;59.850;10.660;2023-05-07T05:09:49;2.77;;;2.00;;
8982;SDS011;20979;59.850;10.660;2023-05-07T05:12:16;3.27;;;2.07;;
8982;SDS011;20979;59.850;10.660;2023-05-07T05:14:44;3.43;;;2.27;;
8982;SDS011;20979;59.850;10.660;2023-05-07T05:17:11;2.40;;;2.20;;
8982;SDS011;20979;59.850;10.660;2023-05-07T05:19:38;2.77;;;2.40;;
8982;SDS011;20979;59.850;10.660;2023-05-07T05:22:06;4.30;;;2.27;;
8982;SDS011;20979;59.850;10.660;2023-05-07T05:24:35;3.30;;;2.20;;
8982;SDS011;20979;59.850;10.660;2023-05-07T05:27:02;2.57;;;2.23;;
8982;SDS011;20979;59.850;10.660;2023-05-07T05:29:29;3.43;;;2.10;;
8982;SDS011;20979;59.850;10.660;2023-05-07T05:31:57;3.13;;;2.07;;
8982;SDS011;20979;59.850;10.660;2023-05-07T05:34:24;4.53;;;2.17;;
8982;SDS011;20979;59.850;10.660;2023-05-07T05:36:52;2.80;;;1.97;;
8982;SDS011;20979;59.850;10.660;2023-05-07T05:39:20;3.87;;;2.27;;
8982;SDS011;20979;59.850;10.660;2023-05-07T05:41:49;2.43;;;2.20;;
8982;SDS011;20979;59.850;10.660;2023-05-07T05:44:17;4.93;;;2.10;;
8982;SDS011;20979;59.850;10.660;2023-05-07T05:46:44;2.67;;;2.40;;
8982;SDS011;20979;59.850;10.660;2023-05-07T05:49:12;2.47;;;2.27;;
8982;SDS011;20979;59.850;10.660;2023-05-07T05:51:39;3.63;;;1.90;;
8982;SDS011;20979;59.850;10.660;2023-05-07T05:54:06;2.83;;;2.13;;
8982;SDS011;20979;59.850;10.660;2023-05-07T05:56:34;2.93;;;1.87;;
8982;SDS011;20979;59.850;10.660;2023-05-07T05:59:03;3.53;;;2.40;;
8982;SDS011;20979;59.850;10.660;2023-05-07T06:01:30;3.40;;;2.17;;
8982;SDS011;20979;59.850;10.660;2023-05-07T06:03:58;3.93;;;2.30;;
8982;SDS011;20979;59.850;10.660;2023-05-07T06:06:25;2.87;;;2.07;;
8982;SDS011;20979;59.850;10.660;2023-05-07T06:08:53;3.30;;;2.33;;
8982;SDS011;20979;59.850;10.660;2023-05-07T06:11:20;4.50;;;2.40;;
8982;SDS011;20979;59.850;10.660;2023-05-07T06:13:49;3.87;;;2.10;;
8982;SDS011;20979;59.850;10.660;2023-05-07T06:16:20;4.20;;;2.20;;
8982;SDS011;20979;59.850;10.660;2023-05-07T06:18:48;3.03;;;2.30;;
8982;SDS011;20979;59.850;10.660;2023-05-07T06:21:29;2.57;;;2.13;;
8982;SDS011;20979;59.850;10.660;2023-05-07T06:39:17;2.73;;;1.80;;
8982;SDS011;20979;59.850;10.660;2023-05-07T06:42:02;2.93;;;1.70;;
8982;SDS011;20979;59.850;10.660;2023-05-07T06:44:29;2.60;;;1.90;;
8982;SDS011;20979;59.850;10.660;2023-05-07T06:46:57;3.17;;;1.60;;
8982;SDS011;20979;59.850;10.660;2023-05-07T06:49:24;1.90;;;1.80;;
8982;SDS011;20979;59.850;10.660;2023-05-07T06:51:52;1.80;;;1.70;;
8982;SDS011;20979;59.850;10.660;2023-05-07T06:54:20;2.23;;;2.03;;
8982;SDS011;20979;59.850;10.660;2023-05-07T06:56:48;3.87;;;2.03;;
8982;SDS011;20979;59.850;10.660;2023-05-07T06:59:15;2.27;;;1.90;;
8982;SDS011;20979;59.850;10.660;2023-05-07T07:01:42;5.93;;;2.03;;
8982;SDS011;20979;59.850;10.660;2023-05-07T07:04:10;2.00;;;1.90;;
8982;SDS011;20979;59.850;10.660;2023-05-07T07:06:37;2.73;;;2.10;;
8982;SDS011;20979;59.850;10.660;2023-05-07T07:09:19;2.17;;;2.07;;
8982;SDS011;20979;59.850;10.660;2023-05-07T07:11:47;3.40;;;2.00;;
8982;SDS011;20979;59.850;10.660;2023-05-07T07:14:15;2.10;;;1.90;;
8982;SDS011;20979;59.850;10.660;2023-05-07T07:16:42;3.87;;;1.80;;
8982;SDS011;20979;59.850;10.660;2023-05-07T07:19:10;2.50;;;2.00;;
8982;SDS011;20979;59.850;10.660;2023-05-07T07:21:37;3.13;;;2.17;;
8982;SDS011;20979;59.850;10.660;2023-05-07T07:24:04;2.60;;;1.90;;
8982;SDS011;20979;59.850;10.660;2023-05-07T07:26:32;2.47;;;2.10;;
8982;SDS011;20979;59.850;10.660;2023-05-07T07:29:01;3.20;;;2.10;;
8982;SDS011;20979;59.850;10.660;2023-05-07T07:31:28;2.50;;;1.97;;
8982;SDS011;20979;59.850;10.660;2023-05-07T07:33:56;2.40;;;2.10;;
8982;SDS011;20979;59.850;10.660;2023-05-07T07:36:23;3.00;;;2.27;;
8982;SDS011;20979;59.850;10.660;2023-05-07T07:38:51;3.07;;;2.37;;
8982;SDS011;20979;59.850;10.660;2023-05-07T07:41:25;2.57;;;2.00;;
8982;SDS011;20979;59.850;10.660;2023-05-07T07:43:52;2.53;;;2.30;;
8982;SDS011;20979;59.850;10.660;2023-05-07T07:46:21;2.53;;;2.20;;
8982;SDS011;20979;59.850;10.660;2023-05-07T07:48:49;2.47;;;2.27;;
8982;SDS011;20979;59.850;10.660;2023-05-07T07:51:16;4.40;;;2.40;;
8982;SDS011;20979;59.850;10.660;2023-05-07T07:53:44;2.73;;;2.00;;
8982;SDS011;20979;59.850;10.660;2023-05-07T07:56:11;2.77;;;2.17;;
8982;SDS011;20979;59.850;10.660;2023-05-07T07:58:38;4.00;;;2.40;;
8982;SDS011;20979;59.850;10.660;2023-05-07T08:01:06;2.83;;;2.20;;
8982;SDS011;20979;59.850;10.660;2023-05-07T08:03:35;2.77;;;2.30;;
8982;SDS011;20979;59.850;10.660;2023-05-07T08:13:36;2.80;;;2.13;;
8982;SDS011;20979;59.850;10.660;2023-05-07T08:33:15;2.37;;;2.00;;
8982;SDS011;20979;59.850;10.660;2023-05-07T08:35:43;2.17;;;1.90;;
8982;SDS011;20979;59.850;10.660;2023-05-07T08:38:11;2.00;;;1.80;;
8982;SDS011;20979;59.850;10.660;2023-05-07T08:43:54;3.47;;;1.80;;
8982;SDS011;20979;59.850;10.660;2023-05-07T08:46:25;2.97;;;2.00;;
8982;SDS011;20979;59.850;10.660;2023-05-07T08:52:20;2.00;;;1.90;;
8982;SDS011;20979;59.850;10.660;2023-05-07T08:55:18;2.30;;;1.97;;
8982;SDS011;20979;59.850;10.660;2023-05-07T08:57:46;2.27;;;1.93;;
8982;SDS011;20979;59.850;10.660;2023-05-07T09:00:14;3.13;;;1.80;;
8982;SDS011;20979;59.850;10.660;2023-05-07T09:05:30;2.43;;;2.00;;
8982;SDS011;20979;59.850;10.660;2023-05-07T09:08:01;2.00;;;1.80;;
8982;SDS011;20979;59.850;10.660;2023-05-07T09:10:29;1.88;;;1.77;;
8982;SDS011;20979;59.850;10.660;2023-05-07T09:13:06;2.03;;;1.63;;
8982;SDS011;20979;59.850;10.660;2023-05-07T09:15:44;2.07;;;1.80;;
8982;SDS011;20979;59.850;10.660;2023-05-07T09:18:12;3.97;;;1.67;;
8982;SDS011;20979;59.850;10.660;2023-05-07T09:20:53;2.00;;;1.80;;
8982;SDS011;20979;59.850;10.660;2023-05-07T09:23:31;2.50;;;1.83;;
8982;SDS011;20979;59.850;10.660;2023-05-07T09:26:27;3.63;;;1.60;;
8982;SDS011;20979;59.850;10.660;2023-05-07T09:28:56;1.70;;;1.60;;
8982;SDS011;20979;59.850;10.660;2023-05-07T09:31:26;3.20;;;1.73;;
8982;SDS011;20979;59.850;10.660;2023-05-07T09:33:55;1.93;;;1.63;;
8982;SDS011;20979;59.850;10.660;2023-05-07T09:36:33;1.70;;;1.60;;
8982;SDS011;20979;59.850;10.660;2023-05-07T09:42:16;2.15;;;1.95;;
8982;SDS011;20979;59.850;10.660;2023-05-07T09:45:06;2.10;;;1.90;;
8982;SDS011;20979;59.850;10.660;2023-05-07T09:47:47;2.43;;;1.83;;
8982;SDS011;20979;59.850;10.660;2023-05-07T09:50:44;2.23;;;1.70;;
8982;SDS011;20979;59.850;10.660;2023-05-07T09:56:08;2.60;;;1.70;;
8982;SDS011;20979;59.850;10.660;2023-05-07T10:01:40;1.90;;;1.40;;
8982;SDS011;20979;59.850;10.660;2023-05-07T10:04:22;1.52;;;1.40;;
8982;SDS011;20979;59.850;10.660;2023-05-07T10:07:06;1.60;;;1.50;;
8982;SDS011;20979;59.850;10.660;2023-05-07T10:18:41;2.05;;;1.70;;
8982;SDS011;20979;59.850;10.660;2023-05-07T10:21:39;3.67;;;1.58;;
8982;SDS011;20979;59.850;10.660;2023-05-07T10:30:46;3.13;;;1.52;;
8982;SDS011;20979;59.850;10.660;2023-05-07T11:13:43;1.15;;;1.00;;
8982;SDS011;20979;59.850;10.660;2023-05-07T11:41:35;2.03;;;1.20;;
8982;SDS011;20979;59.850;10.660;2023-05-07T11:47:35;1.42;;;1.10;;
8982;SDS011;20979;59.850;10.660;2023-05-07T12:32:14;1.63;;;1.40;;
8982;SDS011;20979;59.850;10.660;2023-05-07T12:35:02;1.52;;;1.42;;
8982;SDS011;20979;59.850;10.660;2023-05-07T12:37:56;2.03;;;1.38;;
8982;SDS011;20979;59.850;10.660;2023-05-07T12:58:23;1.77;;;1.38;;
8982;SDS011;20979;59.850;10.660;2023-05-07T13:00:51;2.30;;;1.40;;
8982;SDS011;20979;59.850;10.660;2023-05-07T13:03:51;1.40;;;1.15;;
8982;SDS011;20979;59.850;10.660;2023-05-07T13:06:19;1.50;;;1.33;;
8982;SDS011;20979;59.850;10.660;2023-05-07T13:08:49;3.78;;;1.42;;
8982;SDS011;20979;59.850;10.660;2023-05-07T13:11:16;3.63;;;1.33;;
8982;SDS011;20979;59.850;10.660;2023-05-07T13:14:09;1.33;;;1.20;;
8982;SDS011;20979;59.850;10.660;2023-05-07T13:26:32;2.15;;;1.20;;
8982;SDS011;20979;59.850;10.660;2023-05-07T14:15:39;2.28;;;1.42;;
8982;SDS011;20979;59.850;10.660;2023-05-07T14:21:28;1.45;;;1.35;;
8982;SDS011;20979;59.850;10.660;2023-05-07T14:24:02;2.08;;;1.45;;
8982;SDS011;20979;59.850;10.660;2023-05-07T14:26:46;1.63;;;1.20;;
8982;SDS011;20979;59.850;10.660;2023-05-07T14:30:15;3.83;;;1.40;;
8982;SDS011;20979;59.850;10.660;2023-05-07T14:35:47;1.80;;;1.48;;
8982;SDS011;20979;59.850;10.660;2023-05-07T14:41:17;2.33;;;1.30;;
8982;SDS011;20979;59.850;10.660;2023-05-07T14:43:45;2.38;;;1.60;;
8982;SDS011;20979;59.850;10.660;2023-05-07T14:46:29;4.20;;;1.60;;
8982;SDS011;20979;59.850;10.660;2023-05-07T14:49:13;2.92;;;1.50;;
8982;SDS011;20979;59.850;10.660;2023-05-07T14:52:14;3.13;;;1.40;;
8982;SDS011;20979;59.850;10.660;2023-05-07T14:54:52;2.85;;;1.30;;
8982;SDS011;20979;59.850;10.660;2023-05-07T14:57:22;3.65;;;1.40;;
8982;SDS011;20979;59.850;10.660;2023-05-07T14:59:52;2.45;;;1.15;;
8982;SDS011;20979;59.850;10.660;2023-05-07T15:33:12;1.98;;;1.55;;
8982;SDS011;20979;59.850;10.660;2023-05-07T15:45:24;3.42;;;1.67;;
8982;SDS011;20979;59.850;10.660;2023-05-07T15:47:54;2.08;;;1.45;;
8982;SDS011;20979;59.850;10.660;2023-05-07T16:12:20;1.83;;;1.35;;
8982;SDS011;20979;59.850;10.660;2023-05-07T16:20:58;3.45;;;2.10;;
8982;SDS011;20979;59.850;10.660;2023-05-07T16:29:36;4.55;;;4.13;;
8982;SDS011;20979;59.850;10.660;2023-05-07T16:32:04;3.55;;;2.95;;
8982;SDS011;20979;59.850;10.660;2023-05-07T16:34:58;2.97;;;2.63;;
8982;SDS011;20979;59.850;10.660;2023-05-07T16:41:00;1.63;;;1.40;;
8982;SDS011;20979;59.850;10.660;2023-05-07T16:43:45;2.65;;;1.38;;
8982;SDS011;20979;59.850;10.660;2023-05-07T16:52:27;1.92;;;1.20;;
8982;SDS011;20979;59.850;10.660;2023-05-07T16:55:07;1.52;;;1.30;;
8982;SDS011;20979;59.850;10.660;2023-05-07T16:57:55;3.38;;;1.63;;
8982;SDS011;20979;59.850;10.660;2023-05-07T17:00:37;2.03;;;1.23;;
8982;SDS011;20979;59.850;10.660;2023-05-07T17:25:06;2.17;;;1.35;;
8982;SDS011;20979;59.850;10.660;2023-05-07T17:43:22;1.47;;;1.37;;
8982;SDS011;20979;59.850;10.660;2023-05-07T17:48:55;2.00;;;1.30;;
8982;SDS011;20979;59.850;10.660;2023-05-07T17:51:25;1.93;;;1.40;;
8982;SDS011;20979;59.850;10.660;2023-05-07T17:54:07;2.83;;;0.90;;
8982;SDS011;20979;59.850;10.660;2023-05-07T17:56:36;1.90;;;1.10;;
8982;SDS011;20979;59.850;10.660;2023-05-07T17:59:40;1.87;;;1.00;;
8982;SDS011;20979;59.850;10.660;2023-05-07T18:03:50;1.20;;;1.10;;
8982;SDS011;20979;59.850;10.660;2023-05-07T18:08:30;1.07;;;0.97;;
8982;SDS011;20979;59.850;10.660;2023-05-07T18:13:54;1.30;;;1.20;;
8982;SDS011;20979;59.850;10.660;2023-05-07T18:16:47;2.60;;;1.20;;
8982;SDS011;20979;59.850;10.660;2023-05-07T18:19:18;1.97;;;1.43;;
8982;SDS011;20979;59.850;10.660;2023-05-07T18:24:37;1.97;;;1.50;;
8982;SDS011;20979;59.850;10.660;2023-05-07T18:27:12;4.20;;;1.40;;
8982;SDS011;20979;59.850;10.660;2023-05-07T18:29:39;1.20;;;1.10;;
8982;SDS011;20979;59.850;10.660;2023-05-07T18:32:08;1.40;;;1.30;;
8982;SDS011;20979;59.850;10.660;2023-05-07T18:34:36;2.77;;;1.40;;
8982;SDS011;20979;59.850;10.660;2023-05-07T18:37:03;1.40;;;1.30;;
8982;SDS011;20979;59.850;10.660;2023-05-07T18:39:39;1.57;;;1.23;;
8982;SDS011;20979;59.850;10.660;2023-05-07T18:42:08;2.40;;;1.23;;
8982;SDS011;20979;59.850;10.660;2023-05-07T18:44:36;1.70;;;1.27;;
8982;SDS011;20979;59.850;10.660;2023-05-07T18:47:03;1.70;;;1.27;;
8982;SDS011;20979;59.850;10.660;2023-05-07T18:49:32;2.33;;;1.17;;
8982;SDS011;20979;59.850;10.660;2023-05-07T18:52:00;1.37;;;1.13;;
8982;SDS011;20979;59.850;10.660;2023-05-07T18:54:48;2.10;;;1.27;;
8982;SDS011;20979;59.850;10.660;2023-05-07T18:57:16;4.53;;;1.13;;
8982;SDS011;20979;59.850;10.660;2023-05-07T18:59:43;2.47;;;1.30;;
8982;SDS011;20979;59.850;10.660;2023-05-07T19:02:11;1.20;;;1.10;;
8982;SDS011;20979;59.850;10.660;2023-05-07T19:04:42;1.10;;;1.10;;
8982;SDS011;20979;59.850;10.660;2023-05-07T19:07:16;1.07;;;0.97;;
8982;SDS011;20979;59.850;10.660;2023-05-07T19:09:58;2.43;;;1.27;;
8982;SDS011;20979;59.850;10.660;2023-05-07T19:12:25;3.57;;;1.13;;
8982;SDS011;20979;59.850;10.660;2023-05-07T19:14:53;1.93;;;1.30;;
8982;SDS011;20979;59.850;10.660;2023-05-07T19:17:21;2.17;;;1.33;;
8982;SDS011;20979;59.850;10.660;2023-05-07T19:22:47;2.73;;;1.40;;
8982;SDS011;20979;59.850;10.660;2023-05-07T19:25:15;2.00;;;1.10;;
8982;SDS011;20979;59.850;10.660;2023-05-07T19:27:47;1.07;;;1.07;;
8982;SDS011;20979;59.850;10.660;2023-05-07T19:30:15;0.90;;;0.90;;
8982;SDS011;20979;59.850;10.660;2023-05-07T19:32:42;1.40;;;1.30;;
8982;SDS011;20979;59.850;10.660;2023-05-07T19:35:10;1.43;;;1.30;;
8982;SDS011;20979;59.850;10.660;2023-05-07T19:37:42;1.63;;;1.30;;
8982;SDS011;20979;59.850;10.660;2023-05-07T19:40:12;1.30;;;1.10;;
8982;SDS011;20979;59.850;10.660;2023-05-07T19:42:48;1.47;;;0.90;;
8982;SDS011;20979;59.850;10.660;2023-05-07T19:45:21;1.50;;;1.00;;
8982;SDS011;20979;59.850;10.660;2023-05-07T19:47:49;2.30;;;1.03;;
8982;SDS011;20979;59.850;10.660;2023-05-07T19:50:18;2.70;;;1.00;;
8982;SDS011;20979;59.850;10.660;2023-05-07T19:53:00;1.77;;;1.17;;
8982;SDS011;20979;59.850;10.660;2023-05-07T19:55:35;1.30;;;1.00;;
8982;SDS011;20979;59.850;10.660;2023-05-07T19:58:19;1.10;;;1.00;;
8982;SDS011;20979;59.850;10.660;2023-05-07T20:00:47;2.43;;;1.20;;
8982;SDS011;20979;59.850;10.660;2023-05-07T20:03:32;2.83;;;1.03;;
8982;SDS011;20979;59.850;10.660;2023-05-07T20:06:36;2.87;;;1.10;;
8982;SDS011;20979;59.850;10.660;2023-05-07T20:09:04;1.57;;;0.93;;
8982;SDS011;20979;59.850;10.660;2023-05-07T20:11:46;1.80;;;0.87;;
8982;SDS011;20979;59.850;10.660;2023-05-07T20:16:56;3.17;;;1.87;;
8982;SDS011;20979;59.850;10.660;2023-05-07T20:19:27;3.87;;;1.50;;
8982;SDS011;20979;59.850;10.660;2023-05-07T20:22:10;2.10;;;1.20;;
8982;SDS011;20979;59.850;10.660;2023-05-07T20:24:37;2.27;;;0.90;;
8982;SDS011;20979;59.850;10.660;2023-05-07T20:30:12;2.37;;;1.30;;
8982;SDS011;20979;59.850;10.660;2023-05-07T20:32:56;1.80;;;1.13;;
8982;SDS011;20979;59.850;10.660;2023-05-07T20:45:04;2.87;;;1.00;;
8982;SDS011;20979;59.850;10.660;2023-05-07T20:47:35;1.00;;;0.90;;
8982;SDS011;20979;59.850;10.660;2023-05-07T20:50:03;1.47;;;1.10;;
8982;SDS011;20979;59.850;10.660;2023-05-07T20:55:35;1.93;;;1.10;;
8982;SDS011;20979;59.850;10.660;2023-05-07T20:58:16;2.93;;;0.93;;
8982;SDS011;20979;59.850;10.660;2023-05-07T21:00:45;1.73;;;1.20;;
8982;SDS011;20979;59.850;10.660;2023-05-07T21:06:31;2.43;;;1.20;;
8982;SDS011;20979;59.850;10.660;2023-05-07T21:08:58;1.80;;;1.40;;
8982;SDS011;20979;59.850;10.660;2023-05-07T21:11:26;2.30;;;1.10;;
8982;SDS011;20979;59.850;10.660;2023-05-07T21:13:53;4.40;;;1.50;;
8982;SDS011;20979;59.850;10.660;2023-05-07T21:16:20;1.93;;;1.40;;
8982;SDS011;20979;59.850;10.660;2023-05-07T21:18:48;2.50;;;1.30;;
8982;SDS011;20979;59.850;10.660;2023-05-07T21:21:15;1.50;;;1.37;;
8982;SDS011;20979;59.850;10.660;2023-05-07T21:23:44;1.87;;;1.10;;
8982;SDS011;20979;59.850;10.660;2023-05-07T21:26:16;2.20;;;1.30;;
8982;SDS011;20979;59.850;10.660;2023-05-07T21:28:43;2.30;;;1.40;;
8982;SDS011;20979;59.850;10.660;2023-05-07T21:31:11;3.50;;;1.50;;
8982;SDS011;20979;59.850;10.660;2023-05-07T21:33:38;2.93;;;1.17;;
8982;SDS011;20979;59.850;10.660;2023-05-07T21:36:06;2.43;;;1.27;;
8982;SDS011;20979;59.850;10.660;2023-05-07T21:38:34;2.63;;;1.10;;
8982;SDS011;20979;59.850;10.660;2023-05-07T21:41:03;3.10;;;1.20;;
8982;SDS011;20979;59.850;10.660;2023-05-07T21:43:30;2.20;;;1.13;;
8982;SDS011;20979;59.850;10.660;2023-05-07T21:45:58;1.57;;;1.00;;
8982;SDS011;20979;59.850;10.660;2023-05-07T21:48:27;1.00;;;1.00;;
8982;SDS011;20979;59.850;10.660;2023-05-07T21:50:59;3.20;;;1.20;;
8982;SDS011;20979;59.850;10.660;2023-05-07T21:53:26;1.23;;;1.13;;
8982;SDS011;20979;59.850;10.660;2023-05-07T21:55:53;1.13;;;1.00;;
8982;SDS011;20979;59.850;10.660;2023-05-07T21:58:22;6.40;;;1.33;;
8982;SDS011;20979;59.850;10.660;2023-05-07T22:00:50;3.13;;;1.27;;
8982;SDS011;20979;59.850;10.660;2023-05-07T22:03:17;1.53;;;1.00;;
8982;SDS011;20979;59.850;10.660;2023-05-07T22:05:44;1.17;;;0.73;;
8982;SDS011;20979;59.850;10.660;2023-05-07T22:08:12;4.00;;;1.10;;
8982;SDS011;20979;59.850;10.660;2023-05-07T22:10:39;1.37;;;1.00;;
8982;SDS011;20979;59.850;10.660;2023-05-07T22:13:07;1.07;;;0.90;;
8982;SDS011;20979;59.850;10.660;2023-05-07T22:15:35;0.93;;;0.93;;
8982;SDS011;20979;59.850;10.660;2023-05-07T22:18:03;2.27;;;1.20;;